Powhatan, West Virginia
Current Conditions -  °F | °C
As of 7:52 PM on Wednesday 17 Dec 2014 (Local Time) from KBLF Reporting Station
Clear Clear  
Wind Chill: 27°   Ceiling: Unl
Heat Index: 34°   Visibility: 10mi
Dew Point: 26°   Wind: 8mph
Humidity: 73%   Direction: 280°W
Pressure: 30.11"   Gusts: NA
Location:  37.4°N, 81.42°W
Report Text: KBLF 180052Z AUTO 28007KT 10SM CLR 01/M03 A3011 RMK AO2 SLP205 T00111033
Loading
Personal Weather Stations






























Interactive Weather Map New forecast layout! Learn more

10-Day Weather Forecast

Advertisements
Track Severe Weather on mobile